createdAt,value
2018-12-14T00:00:59.785Z,14.73
2018-12-14T00:03:31.197Z,14.07
2018-12-14T00:05:59.315Z,14.77
2018-12-14T00:08:28.318Z,14.43
2018-12-14T00:10:57.701Z,14.13
2018-12-14T00:13:27.233Z,15.33
2018-12-14T00:15:57.021Z,15.67
2018-12-14T00:18:28.449Z,15.23
2018-12-14T00:20:58.229Z,15.60
2018-12-14T00:23:26.345Z,15.20
2018-12-14T00:25:54.797Z,15.57
2018-12-14T00:28:23.329Z,15.57
2018-12-14T00:30:52.353Z,15.80
2018-12-14T00:33:23.325Z,16.40
2018-12-14T00:35:55.378Z,15.97
2018-12-14T00:38:23.670Z,16.57
2018-12-14T00:40:54.797Z,14.80
2018-12-14T00:43:23.490Z,15.50
2018-12-14T00:45:55.206Z,14.87
2018-12-14T00:48:24.049Z,16.57
2018-12-14T00:50:54.818Z,16.13
2018-12-14T00:53:24.662Z,16.67
2018-12-14T00:55:53.678Z,15.87
2018-12-14T00:58:24.446Z,16.37
2018-12-14T01:00:53.478Z,15.80
2018-12-14T01:03:23.962Z,17.07
2018-12-14T01:05:52.679Z,15.93
2018-12-14T01:08:21.714Z,16.20
2018-12-14T01:10:50.566Z,16.60
2018-12-14T01:13:21.001Z,16.50
2018-12-14T01:15:50.146Z,16.60
2018-12-14T01:18:20.170Z,16.83
2018-12-14T01:20:48.471Z,16.37
2018-12-14T01:23:16.586Z,16.87
2018-12-14T01:25:46.002Z,16.07
2018-12-14T01:28:14.458Z,16.73
2018-12-14T01:30:42.598Z,16.73
2018-12-14T01:33:12.031Z,17.40
2018-12-14T01:35:40.718Z,16.43
2018-12-14T01:38:09.510Z,16.80
2018-12-14T01:40:41.386Z,17.43
2018-12-14T01:43:09.638Z,15.87
2018-12-14T01:45:37.870Z,16.70
2018-12-14T01:48:06.251Z,16.70
2018-12-14T01:50:35.454Z,17.33
2018-12-14T01:53:03.834Z,17.57
2018-12-14T01:55:32.398Z,17.40
2018-12-14T01:58:00.730Z,16.87
2018-12-14T02:00:29.114Z,16.97
2018-12-14T02:02:57.575Z,16.50
2018-12-14T02:05:25.886Z,16.40
2018-12-14T02:07:54.131Z,16.97
2018-12-14T02:10:22.555Z,16.90
2018-12-14T02:12:50.862Z,16.47
2018-12-14T02:15:19.347Z,17.07
2018-12-14T02:17:47.546Z,16.57
2018-12-14T02:20:15.810Z,16.70
2018-12-14T02:22:44.935Z,16.53
2018-12-14T02:25:13.302Z,17.17
2018-12-14T02:27:41.502Z,16.57
2018-12-14T02:30:15.301Z,16.10
2018-12-14T02:32:43.522Z,17.13
2018-12-14T02:35:12.071Z,17.27
2018-12-14T02:37:40.564Z,17.23
2018-12-14T02:40:08.650Z,17.20
2018-12-14T02:42:37.126Z,17.73
2018-12-14T02:45:05.611Z,16.77
2018-12-14T02:47:33.899Z,17.47
2018-12-14T02:50:02.148Z,17.23
2018-12-14T02:52:30.455Z,17.73
2018-12-14T02:54:58.926Z,17.63
2018-12-14T02:57:28.387Z,17.77
2018-12-14T02:59:56.615Z,18.00
2018-12-14T03:02:24.940Z,18.47
2018-12-14T03:04:53.955Z,17.10
2018-12-14T03:07:22.372Z,17.73
2018-12-14T03:09:51.641Z,18.33
2018-12-14T03:12:26.534Z,18.43
2018-12-14T03:14:50.589Z,17.87
2018-12-14T03:17:19.000Z,17.33
2018-12-14T03:19:47.524Z,18.67
2018-12-14T03:22:16.026Z,19.13
2018-12-14T03:24:44.387Z,18.17
2018-12-14T03:27:12.596Z,18.23
2018-12-14T03:29:40.844Z,18.97
2018-12-14T03:32:09.181Z,18.80
2018-12-14T03:34:37.415Z,17.83
2018-12-14T03:37:06.197Z,17.50
2018-12-14T03:39:34.620Z,17.70
2018-12-14T03:42:04.085Z,17.73
2018-12-14T03:44:32.501Z,18.30
2018-12-14T03:47:01.465Z,18.73
2018-12-14T03:49:30.013Z,18.77
2018-12-14T03:51:58.369Z,17.87
2018-12-14T03:57:01.455Z,18.13
2018-12-14T03:59:29.684Z,17.53
2018-12-14T04:01:57.869Z,17.93
2018-12-14T04:04:26.299Z,17.10
2018-12-14T04:06:54.903Z,16.93
2018-12-14T04:09:24.626Z,18.07
2018-12-14T04:11:52.871Z,18.27
2018-12-14T04:14:21.039Z,17.60
2018-12-14T04:16:49.162Z,17.67
2018-12-14T04:19:17.535Z,23.47
2018-12-14T04:21:46.046Z,16.70
2018-12-14T04:24:14.422Z,17.17
2018-12-14T04:26:42.770Z,15.53
2018-12-14T04:29:12.242Z,16.63
2018-12-14T04:31:41.371Z,16.40
2018-12-14T04:34:09.638Z,16.93
2018-12-14T04:36:38.862Z,16.57
2018-12-14T04:39:08.283Z,15.30
2018-12-14T04:41:36.450Z,16.23
2018-12-14T04:44:05.022Z,17.03
2018-12-14T04:46:34.073Z,16.83
2018-12-14T04:49:02.294Z,15.93
2018-12-14T04:51:30.434Z,15.30
2018-12-14T04:53:58.561Z,16.93
2018-12-14T04:56:26.656Z,16.83
2018-12-14T04:58:55.084Z,15.73
2018-12-14T05:01:23.425Z,15.77
2018-12-14T05:03:51.699Z,15.47
2018-12-14T05:06:19.786Z,15.30
2018-12-14T05:08:48.236Z,14.93
2018-12-14T05:11:16.683Z,16.17
2018-12-14T05:13:44.974Z,17.07
2018-12-14T05:16:19.637Z,16.83
2018-12-14T05:18:48.134Z,16.03
2018-12-14T05:21:16.433Z,16.33
2018-12-14T05:23:45.965Z,17.30
2018-12-14T05:26:14.160Z,15.57
2018-12-14T05:28:45.992Z,16.77
2018-12-14T05:31:15.009Z,16.47
2018-12-14T05:33:43.086Z,15.97
2018-12-14T05:36:11.284Z,16.77
2018-12-14T05:38:43.129Z,15.73
2018-12-14T05:41:13.235Z,16.87
2018-12-14T05:43:41.923Z,16.00
2018-12-14T05:46:12.062Z,17.07
2018-12-14T05:48:41.133Z,16.80
2018-12-14T05:51:09.358Z,16.57
2018-12-14T05:53:37.529Z,16.33
2018-12-14T05:56:06.610Z,17.13
2018-12-14T05:58:37.639Z,17.37
2018-12-14T06:01:06.038Z,16.17
2018-12-14T06:03:40.596Z,16.67
2018-12-14T06:06:08.887Z,16.80
2018-12-14T06:08:37.067Z,16.83
2018-12-14T06:11:05.262Z,16.47
2018-12-14T06:16:19.578Z,17.20
2018-12-14T06:18:47.850Z,17.73
2018-12-14T06:21:15.970Z,16.20
2018-12-14T06:23:44.199Z,17.07
2018-12-14T06:26:12.477Z,17.27
2018-12-14T06:28:41.966Z,18.47
2018-12-14T06:31:10.358Z,16.97
2018-12-14T06:33:38.470Z,16.93
2018-12-14T06:36:12.918Z,18.93
2018-12-14T06:38:42.518Z,18.80
2018-12-14T06:41:11.127Z,18.60
2018-12-14T06:43:39.371Z,19.73
2018-12-14T06:46:09.799Z,18.87
2018-12-14T06:48:42.118Z,18.63
2018-12-14T06:51:12.061Z,17.90
2018-12-14T06:53:43.194Z,18.60
2018-12-14T06:56:26.962Z,19.07
2018-12-14T06:58:57.728Z,18.90
2018-12-14T07:01:32.230Z,19.37
2018-12-14T07:04:00.322Z,19.70
2018-12-14T07:06:28.342Z,18.77
2018-12-14T07:08:56.400Z,19.53
2018-12-14T07:11:24.661Z,18.17
2018-12-14T07:13:52.719Z,19.67
2018-12-14T07:16:20.734Z,18.40
2018-12-14T07:18:48.806Z,18.57
2018-12-14T07:21:16.819Z,18.90
2018-12-14T07:23:44.989Z,18.90
2018-12-14T07:26:13.181Z,18.67
2018-12-14T07:28:41.298Z,20.07
2018-12-14T07:31:09.399Z,21.50
2018-12-14T07:33:37.407Z,20.37
2018-12-14T07:36:05.442Z,20.43
2018-12-14T07:38:33.455Z,19.67
2018-12-14T07:41:01.455Z,21.50
2018-12-14T07:43:29.475Z,21.63
2018-12-14T07:45:57.487Z,21.77
2018-12-14T07:48:25.523Z,20.23
2018-12-14T07:50:53.525Z,20.40
2018-12-14T07:53:21.673Z,20.00
2018-12-14T07:55:49.699Z,19.83
2018-12-14T07:58:17.707Z,19.10
2018-12-14T08:03:31.051Z,18.93
2018-12-14T08:05:59.508Z,18.53
2018-12-14T08:08:37.831Z,20.23
2018-12-14T08:14:00.332Z,19.50
2018-12-14T08:16:28.351Z,19.33
2018-12-14T08:18:56.468Z,21.07
2018-12-14T08:21:25.564Z,20.90
2018-12-14T08:23:53.564Z,19.47
2018-12-14T08:26:21.579Z,19.63
2018-12-14T08:28:49.920Z,21.10
2018-12-14T08:31:19.000Z,19.23
2018-12-14T08:33:47.181Z,19.67
2018-12-14T08:36:15.203Z,20.50
2018-12-14T08:38:43.232Z,20.67
2018-12-14T08:41:11.644Z,19.83
2018-12-14T08:43:41.677Z,20.93
2018-12-14T08:46:09.860Z,22.17
2018-12-14T08:48:37.964Z,18.73
2018-12-14T08:51:06.405Z,20.53
2018-12-14T08:53:34.660Z,19.07
2018-12-14T08:56:03.138Z,19.57
2018-12-14T08:58:31.476Z,19.17
2018-12-14T09:00:59.848Z,18.33
2018-12-14T09:03:28.125Z,18.97
2018-12-14T09:05:56.717Z,18.93
2018-12-14T09:08:24.985Z,17.30
2018-12-14T09:10:53.253Z,19.87
2018-12-14T09:13:21.545Z,18.33
2018-12-14T09:15:49.817Z,18.37
2018-12-14T09:18:18.138Z,17.97
2018-12-14T09:20:46.449Z,20.63
2018-12-14T09:23:14.753Z,21.33
2018-12-14T09:25:43.065Z,19.93
2018-12-14T09:28:11.400Z,20.63
2018-12-14T09:30:42.890Z,19.50
2018-12-14T09:33:10.234Z,18.83
2018-12-14T09:35:38.634Z,19.00
2018-12-14T09:38:06.930Z,18.07
2018-12-14T09:40:35.219Z,18.37
2018-12-14T09:43:03.519Z,17.93
2018-12-14T09:45:31.905Z,17.87
2018-12-14T09:48:00.375Z,17.73
2018-12-14T09:50:29.117Z,18.03
2018-12-14T09:52:57.483Z,18.53
2018-12-14T09:55:25.556Z,18.20
2018-12-14T09:57:53.623Z,17.27
2018-12-14T10:00:21.659Z,17.83
2018-12-14T10:02:55.747Z,16.23
2018-12-14T10:05:23.939Z,15.67
2018-12-14T10:07:58.407Z,15.70
2018-12-14T10:13:12.778Z,15.17
2018-12-14T10:15:40.963Z,15.60
2018-12-14T10:18:08.996Z,14.27
2018-12-14T10:20:37.048Z,15.70
2018-12-14T10:23:06.181Z,14.63
2018-12-14T10:25:34.327Z,16.27
2018-12-14T10:28:02.357Z,14.53
2018-12-14T10:30:30.361Z,14.77
2018-12-14T10:32:58.713Z,14.87
2018-12-14T10:35:26.721Z,14.70
2018-12-14T10:37:58.267Z,13.77
2018-12-14T10:40:26.348Z,13.77
2018-12-14T10:42:54.376Z,13.80
2018-12-14T10:45:24.113Z,15.57
2018-12-14T10:48:03.328Z,13.87
2018-12-14T10:51:54.804Z,13.70
2018-12-14T10:54:23.012Z,13.57
2018-12-14T10:56:51.212Z,13.30
2018-12-14T10:59:19.512Z,13.33
2018-12-14T11:01:54.380Z,13.57
2018-12-14T11:04:23.864Z,13.27
2018-12-14T11:06:52.104Z,13.27
2018-12-14T11:09:20.252Z,13.67
2018-12-14T11:11:57.920Z,14.63
2018-12-14T11:14:25.927Z,13.10
2018-12-14T11:16:54.011Z,13.90
2018-12-14T11:19:51.472Z,14.17
2018-12-14T11:22:20.044Z,13.97
2018-12-14T11:24:48.124Z,13.33
2018-12-14T11:27:16.183Z,13.80
2018-12-14T11:29:44.299Z,13.87
2018-12-14T11:32:12.531Z,13.27
2018-12-14T11:34:40.757Z,13.57
2018-12-14T11:37:08.791Z,13.67
2018-12-14T11:39:36.912Z,13.67
2018-12-14T11:42:05.066Z,14.27
2018-12-14T11:44:33.171Z,14.30
2018-12-14T11:47:02.212Z,13.43
2018-12-14T11:49:30.236Z,13.43
2018-12-14T11:51:58.348Z,13.90
2018-12-14T11:54:26.373Z,14.10
2018-12-14T11:56:54.400Z,14.80
2018-12-14T11:59:24.856Z,13.97
2018-12-14T12:10:30.064Z,14.53
2018-12-14T12:12:58.073Z,13.80
2018-12-14T12:15:26.104Z,15.23
2018-12-14T12:18:22.900Z,15.60
2018-12-14T12:20:50.945Z,15.57
2018-12-14T12:23:20.626Z,16.73
2018-12-14T12:25:59.901Z,15.63
2018-12-14T12:28:27.957Z,15.57
2018-12-14T12:33:42.021Z,13.93
2018-12-14T12:36:10.086Z,13.43
2018-12-14T12:38:38.485Z,12.70
2018-12-14T12:41:06.773Z,11.87
2018-12-14T12:43:44.312Z,11.67
2018-12-14T12:46:12.344Z,11.60
2018-12-14T12:48:41.002Z,12.17
2018-12-14T12:51:09.133Z,11.43
2018-12-14T12:56:23.234Z,12.40
2018-12-14T12:59:11.089Z,11.67
2018-12-14T13:01:44.425Z,12.47
2018-12-14T13:04:12.426Z,12.17
2018-12-14T13:06:40.538Z,12.10
2018-12-14T13:09:08.777Z,11.00
2018-12-14T13:11:36.769Z,11.37
2018-12-14T13:14:04.797Z,12.03
2018-12-14T13:16:32.809Z,11.57
2018-12-14T13:19:00.821Z,12.50
2018-12-14T13:21:28.961Z,12.23
2018-12-14T13:23:57.018Z,13.33
2018-12-14T13:26:25.141Z,12.53
2018-12-14T13:28:53.158Z,12.03
2018-12-14T13:31:21.189Z,12.17
2018-12-14T13:33:49.193Z,11.60
2018-12-14T13:36:17.209Z,14.80
2018-12-14T13:38:50.049Z,12.20
2018-12-14T13:41:23.343Z,12.43
2018-12-14T13:43:51.553Z,12.33
2018-12-14T13:46:19.617Z,11.47
2018-12-14T13:48:47.830Z,12.63
2018-12-14T13:51:16.100Z,12.40
2018-12-14T13:53:44.217Z,11.93
2018-12-14T13:56:12.225Z,12.47
2018-12-14T13:58:40.234Z,11.33
2018-12-14T14:01:08.361Z,12.13
2018-12-14T14:03:36.440Z,12.00
2018-12-14T14:06:04.510Z,12.83
2018-12-14T14:08:33.181Z,11.93
2018-12-14T14:11:01.218Z,12.80
2018-12-14T14:13:29.446Z,12.70
2018-12-14T14:15:57.517Z,12.33
2018-12-14T14:18:25.530Z,12.07
2018-12-14T14:21:02.013Z,11.23
2018-12-14T14:23:30.497Z,11.13
2018-12-14T14:25:58.550Z,11.87
2018-12-14T14:28:26.854Z,12.73
2018-12-14T14:30:54.870Z,11.43
2018-12-14T14:33:22.953Z,11.87
2018-12-14T14:35:51.442Z,12.73
2018-12-14T14:38:19.486Z,13.60
2018-12-14T14:40:47.934Z,11.40
2018-12-14T14:43:16.038Z,12.83
2018-12-14T14:45:44.110Z,12.43
2018-12-14T14:48:12.214Z,12.33
2018-12-14T14:50:40.246Z,12.30
2018-12-14T14:53:08.790Z,12.27
2018-12-14T14:55:36.875Z,12.70
2018-12-14T14:58:05.050Z,13.23
2018-12-14T15:00:33.502Z,12.23
2018-12-14T15:03:01.734Z,11.30
2018-12-14T15:05:29.775Z,12.67
2018-12-14T15:07:57.827Z,12.60
2018-12-14T15:10:54.856Z,12.10
2018-12-14T15:13:24.928Z,12.17
2018-12-14T15:15:52.943Z,11.90
2018-12-14T15:18:20.975Z,13.00
2018-12-14T15:20:48.999Z,11.80
2018-12-14T15:23:17.060Z,12.67
2018-12-14T15:25:45.079Z,12.67
2018-12-14T15:30:47.780Z,12.33
2018-12-14T15:33:15.851Z,12.70
2018-12-14T15:35:52.611Z,12.97
2018-12-14T15:38:22.587Z,12.37
2018-12-14T15:40:50.731Z,13.03
2018-12-14T15:43:18.743Z,11.60
2018-12-14T15:45:46.776Z,13.13
2018-12-14T15:48:14.828Z,11.80
2018-12-14T15:50:42.883Z,12.03
2018-12-14T15:53:26.527Z,12.00
2018-12-14T15:55:55.411Z,11.40
2018-12-14T15:58:23.467Z,12.43
2018-12-14T16:00:51.487Z,13.07
2018-12-14T16:03:19.504Z,13.00
2018-12-14T16:05:47.527Z,12.63
2018-12-14T16:08:15.548Z,12.70
2018-12-14T16:10:43.544Z,13.50
2018-12-14T16:13:11.753Z,11.83
2018-12-14T16:15:43.282Z,12.70
2018-12-14T16:18:11.441Z,12.30
2018-12-14T16:20:39.484Z,11.70
2018-12-14T16:23:07.608Z,12.00
2018-12-14T16:25:35.757Z,12.37
2018-12-14T16:28:06.152Z,12.13
2018-12-14T16:30:34.170Z,12.80
2018-12-14T16:33:02.177Z,12.43
2018-12-14T16:35:30.172Z,12.13
2018-12-14T16:37:58.173Z,12.97
2018-12-14T16:40:26.260Z,12.80
2018-12-14T16:42:59.732Z,13.13
2018-12-14T16:45:31.642Z,12.93
2018-12-14T16:47:59.736Z,13.03
2018-12-14T16:50:27.764Z,14.03
2018-12-14T16:52:56.245Z,16.77
2018-12-14T16:55:24.399Z,13.07
2018-12-14T16:57:52.501Z,13.80
2018-12-14T17:00:20.496Z,14.00
2018-12-14T17:02:48.500Z,13.77
2018-12-14T17:05:16.681Z,12.97
2018-12-14T17:07:44.741Z,12.60
2018-12-14T17:10:12.841Z,12.47
2018-12-14T17:12:40.949Z,13.53
2018-12-14T17:15:08.997Z,12.67
2018-12-14T17:17:37.077Z,13.13
2018-12-14T17:20:05.209Z,11.83
2018-12-14T17:22:33.243Z,13.63
2018-12-14T17:25:03.418Z,13.10
2018-12-14T17:27:31.730Z,12.43
2018-12-14T17:29:59.886Z,12.40
2018-12-14T17:32:28.074Z,11.67
2018-12-14T17:34:56.170Z,12.90
2018-12-14T17:37:24.466Z,12.37
2018-12-14T17:39:52.562Z,14.60
2018-12-14T17:42:20.686Z,12.63
2018-12-14T17:44:49.798Z,12.03
2018-12-14T17:47:18.622Z,14.47
2018-12-14T17:49:46.848Z,13.53
2018-12-14T17:52:15.391Z,13.53
2018-12-14T17:54:43.766Z,13.43
2018-12-14T17:57:20.495Z,13.63
2018-12-14T17:59:50.107Z,12.83
2018-12-14T18:02:20.211Z,12.87
2018-12-14T18:04:50.263Z,13.03
2018-12-14T18:07:20.887Z,13.30
2018-12-14T18:09:50.750Z,13.90
2018-12-14T18:12:20.351Z,13.17
2018-12-14T18:14:50.244Z,13.40
2018-12-14T18:17:18.431Z,13.53
2018-12-14T18:19:46.695Z,13.43
2018-12-14T18:22:15.027Z,13.90
2018-12-14T18:24:43.133Z,16.40
2018-12-14T18:27:11.211Z,16.33
2018-12-14T18:29:39.291Z,15.03
2018-12-14T18:32:07.347Z,14.77
2018-12-14T18:34:35.487Z,14.97
2018-12-14T18:37:04.519Z,13.57
2018-12-14T18:39:32.683Z,14.20
2018-12-14T18:42:00.869Z,14.40
2018-12-14T18:44:29.047Z,14.67
2018-12-14T18:46:59.502Z,15.57
2018-12-14T18:49:31.987Z,14.50
2018-12-14T18:52:02.063Z,13.77
2018-12-14T18:54:30.140Z,14.30
2018-12-14T18:56:58.236Z,14.00
2018-12-14T18:59:26.440Z,13.90
2018-12-14T19:01:55.560Z,14.93
2018-12-14T19:04:23.633Z,14.47
2018-12-14T19:06:52.206Z,14.47
2018-12-14T19:09:20.304Z,13.67
2018-12-14T19:11:48.354Z,14.50
2018-12-14T19:14:16.448Z,14.47
2018-12-14T19:16:44.500Z,14.90
2018-12-14T19:19:12.586Z,14.10
2018-12-14T19:21:40.784Z,13.90
2018-12-14T19:24:08.961Z,14.23
2018-12-14T19:26:37.144Z,13.53
2018-12-14T19:29:05.257Z,13.97
2018-12-14T19:31:33.428Z,13.63
2018-12-14T19:34:01.523Z,14.27
2018-12-14T19:36:29.659Z,14.80
2018-12-14T19:38:58.048Z,14.40
2018-12-14T19:41:26.272Z,14.80
2018-12-14T19:43:54.420Z,13.43
2018-12-14T19:46:22.600Z,14.20
2018-12-14T19:48:50.651Z,14.17
2018-12-14T19:51:18.705Z,14.77
2018-12-14T19:53:46.785Z,14.77
2018-12-14T19:56:14.856Z,14.03
2018-12-14T19:58:42.944Z,14.27
2018-12-14T20:01:10.964Z,14.17
2018-12-14T20:03:39.000Z,14.93
2018-12-14T20:06:07.056Z,16.13
2018-12-14T20:08:35.731Z,16.17
2018-12-14T20:11:03.805Z,16.40
2018-12-14T20:13:31.918Z,15.63
2018-12-14T20:16:00.048Z,15.53
2018-12-14T20:18:28.084Z,15.67
2018-12-14T20:20:57.120Z,14.80
2018-12-14T20:23:25.330Z,15.37
2018-12-14T20:25:53.852Z,16.47
2018-12-14T20:28:22.685Z,17.37
2018-12-14T20:30:50.708Z,17.07
2018-12-14T20:33:18.740Z,17.33
2018-12-14T20:35:46.828Z,15.60
2018-12-14T20:38:14.940Z,17.80
2018-12-14T20:40:43.796Z,16.10
2018-12-14T20:43:11.987Z,16.83
2018-12-14T20:45:57.848Z,15.63
2018-12-14T20:48:25.837Z,15.73
2018-12-14T20:50:53.888Z,15.53
2018-12-14T20:53:29.662Z,15.03
2018-12-14T20:55:57.687Z,15.93
2018-12-14T20:58:25.676Z,15.30
2018-12-14T21:00:53.673Z,15.57
2018-12-14T21:03:21.668Z,15.93
2018-12-14T21:05:49.676Z,15.87
2018-12-14T21:08:17.676Z,16.17
2018-12-14T21:13:31.110Z,17.40
2018-12-14T21:15:59.116Z,17.07
